Time;durP1;ratioP1;P1;durP2;ratioP2;P2;SDS_P1;SDS_P2;PMS_P1;PMS_P2;Temp;Humidity;BMP_temperature;BMP_pressure;BME280_temperature;BME280_humidity;BME280_pressure;Samples;Min_cycle;Max_cycle;Signal;HPM_P1;HPM_P2
2022/10/16 00:01:40;;;;;;;1.73;1.10;;;;;;;15.14;51.27;100724.91;5010219;28;20499;-71
2022/10/16 00:04:08;;;;;;;1.90;1.08;;;;;;;15.13;51.45;100727.81;5033793;28;20043;-71
2022/10/16 00:06:36;;;;;;;1.88;1.10;;;;;;;15.12;50.93;100715.94;5028540;28;20508;-71
2022/10/16 00:09:05;;;;;;;1.80;1.10;;;;;;;15.12;51.17;100726.09;5029986;28;20056;-71
2022/10/16 00:11:36;;;;;;;2.25;1.10;;;;;;;15.12;51.33;100726.94;5034588;28;20084;-71
2022/10/16 00:14:10;;;;;;;1.33;0.90;;;;;;;15.13;50.97;100725.94;5030623;28;20042;-71
2022/10/16 00:16:38;;;;;;;1.90;0.85;;;;;;;15.09;51.42;100727.28;5023820;28;20053;-71
2022/10/16 00:19:07;;;;;;;1.35;0.90;;;;;;;15.09;50.92;100731.94;5020455;28;20044;-71
2022/10/16 00:21:35;;;;;;;2.17;0.80;;;;;;;15.09;50.96;100742.97;5028008;28;20052;-71
2022/10/16 00:24:06;;;;;;;1.85;0.95;;;;;;;15.09;50.90;100749.31;5030159;28;20041;-71
2022/10/16 00:26:35;;;;;;;1.58;1.08;;;;;;;15.08;51.19;100744.88;5021645;28;20045;-71
2022/10/16 00:29:06;;;;;;;2.17;1.25;;;;;;;15.07;51.29;100736.75;5030626;28;20042;-71
2022/10/16 00:31:34;;;;;;;2.00;1.05;;;;;;;15.06;51.16;100743.31;5021855;28;20073;-71
2022/10/16 00:34:02;;;;;;;2.13;0.88;;;;;;;15.05;51.21;100736.06;5023764;28;20051;-71
2022/10/16 00:36:31;;;;;;;1.60;0.90;;;;;;;15.04;51.30;100726.06;5027562;28;20045;-71
2022/10/16 00:39:00;;;;;;;2.60;1.33;;;;;;;15.03;51.00;100727.94;5025794;28;20068;-71
2022/10/16 00:41:31;;;;;;;2.53;1.10;;;;;;;15.03;51.37;100730.69;5018058;28;20050;-71
2022/10/16 00:44:00;;;;;;;1.30;0.82;;;;;;;15.02;51.39;100728.97;5024001;28;20519;-71
2022/10/16 00:46:36;;;;;;;2.40;1.20;;;;;;;15.03;51.28;100727.09;5023831;28;20128;-71
2022/10/16 00:49:08;;;;;;;1.58;1.00;;;;;;;15.00;51.05;100722.78;5030267;28;20060;-71
2022/10/16 00:51:41;;;;;;;2.35;1.20;;;;;;;14.99;51.34;100726.56;5026596;28;20069;-71
2022/10/16 00:54:12;;;;;;;2.50;1.13;;;;;;;14.97;50.93;100725.88;5029200;28;20040;-71
2022/10/16 00:56:40;;;;;;;1.65;1.13;;;;;;;14.96;50.90;100710.34;5026502;28;20125;-71
2022/10/16 00:59:16;;;;;;;3.15;1.25;;;;;;;14.99;50.68;100717.44;5027323;28;20053;-71
2022/10/16 01:01:46;;;;;;;1.80;1.20;;;;;;;14.96;51.33;100720.50;5021258;28;20080;-71
2022/10/16 01:04:14;;;;;;;1.50;0.90;;;;;;;14.93;51.29;100718.94;5030067;28;20048;-71
2022/10/16 01:06:52;;;;;;;1.30;0.93;;;;;;;14.95;50.59;100732.56;5001475;28;20041;-71
2022/10/16 01:09:25;;;;;;;2.33;1.10;;;;;;;14.93;50.79;100727.22;5027240;28;20041;-71
2022/10/16 01:12:03;;;;;;;1.98;1.25;;;;;;;14.92;51.30;100731.03;5017521;28;20437;-71
2022/10/16 01:14:41;;;;;;;3.13;1.00;;;;;;;14.92;51.41;100742.06;5020145;28;20117;-71
2022/10/16 01:17:16;;;;;;;1.95;1.10;;;;;;;14.91;50.85;100744.97;5022704;28;20041;-71
2022/10/16 01:20:04;;;;;;;1.88;1.00;;;;;;;14.89;50.93;100745.13;5023356;28;20455;-71
2022/10/16 01:22:44;;;;;;;1.88;0.98;;;;;;;14.90;51.25;100738.59;5016616;28;20057;-71
2022/10/16 01:25:26;;;;;;;2.05;1.10;;;;;;;14.89;51.26;100741.50;5041085;28;20123;-71
2022/10/16 01:27:58;;;;;;;2.05;0.93;;;;;;;14.87;51.30;100751.81;5021236;28;20037;-71
2022/10/16 01:30:31;;;;;;;2.75;1.65;;;;;;;14.87;51.09;100738.03;5019946;28;21577;-71
2022/10/16 01:33:06;;;;;;;2.78;1.15;;;;;;;14.87;50.90;100738.91;5028327;28;20486;-71
2022/10/16 01:35:38;;;;;;;1.80;1.00;;;;;;;14.86;51.40;100745.44;5042476;28;20053;-71
2022/10/16 01:38:13;;;;;;;2.15;1.10;;;;;;;14.85;50.91;100737.38;5026011;28;20119;-71
2022/10/16 01:40:47;;;;;;;1.85;1.10;;;;;;;14.85;50.88;100734.63;5014627;28;20080;-70
2022/10/16 01:43:20;;;;;;;1.65;1.10;;;;;;;14.86;50.81;100739.06;5028379;28;20041;-71
2022/10/16 01:45:48;;;;;;;2.00;1.00;;;;;;;14.84;51.53;100732.88;5005048;28;20037;-71
2022/10/16 01:48:20;;;;;;;1.50;0.90;;;;;;;14.84;51.28;100738.38;5037205;28;20037;-71
2022/10/16 01:50:56;;;;;;;1.92;0.90;;;;;;;14.84;51.27;100741.16;5025802;28;20052;-71
2022/10/16 01:53:27;;;;;;;1.60;0.90;;;;;;;14.82;51.20;100745.94;5025727;28;20072;-71
2022/10/16 01:55:59;;;;;;;1.83;1.17;;;;;;;14.82;51.07;100741.31;5027071;28;20115;-71
2022/10/16 01:58:34;;;;;;;1.80;0.95;;;;;;;14.80;51.03;100762.63;5029300;28;20569;-71
2022/10/16 02:01:04;;;;;;;1.27;0.90;;;;;;;14.81;51.31;100756.09;5023934;28;20042;-71
2022/10/16 02:03:35;;;;;;;1.27;0.90;;;;;;;14.81;51.44;100749.72;5026395;28;20072;-71
2022/10/16 02:06:03;;;;;;;1.08;0.98;;;;;;;14.80;51.12;100740.59;5024535;28;20041;-71
2022/10/16 02:08:32;;;;;;;1.77;1.13;;;;;;;14.81;51.10;100745.09;5027450;28;20064;-71
2022/10/16 02:11:01;;;;;;;3.05;1.17;;;;;;;14.82;51.24;100743.19;5019332;28;20042;-71
2022/10/16 02:13:34;;;;;;;2.45;1.17;;;;;;;14.83;51.33;100742.16;5019765;28;20046;-71
2022/10/16 02:16:02;;;;;;;1.48;0.95;;;;;;;14.79;51.17;100752.66;5040615;28;20635;-71
2022/10/16 02:18:31;;;;;;;1.52;1.10;;;;;;;14.81;51.01;100752.50;5028075;28;20046;-71
2022/10/16 02:21:06;;;;;;;1.92;1.20;;;;;;;14.83;51.45;100742.16;5024416;28;20049;-71
2022/10/16 02:23:41;;;;;;;2.17;1.10;;;;;;;14.84;51.55;100763.19;5027369;28;20087;-71
2022/10/16 02:26:14;;;;;;;2.38;1.20;;;;;;;14.83;51.06;100756.81;5026111;28;20259;-71
2022/10/16 02:28:46;;;;;;;;;;;;;;;14.54;51.88;100761.78;5028328;28;20049;-72
2022/10/16 02:31:19;;;;;;;1.95;1.08;;;;;;;14.80;51.53;100759.88;5021759;28;19921;-71
2022/10/16 02:33:47;;;;;;;2.00;1.20;;;;;;;14.81;51.57;100766.25;5027810;28;20042;-71
2022/10/16 02:36:16;;;;;;;2.00;1.25;;;;;;;14.82;51.65;100768.84;5020971;28;20054;-71
2022/10/16 02:38:45;;;;;;;1.98;1.20;;;;;;;14.83;51.33;100775.22;5023004;28;20395;-71
2022/10/16 02:41:14;;;;;;;1.75;1.02;;;;;;;14.82;51.59;100768.00;5018719;28;20120;-71
2022/10/16 02:43:44;;;;;;;1.67;1.00;;;;;;;14.84;51.62;100769.56;5023402;28;20227;-72
2022/10/16 02:46:12;;;;;;;1.77;1.10;;;;;;;14.83;51.41;100772.47;5022192;28;20061;-71
2022/10/16 02:48:40;;;;;;;1.65;1.10;;;;;;;14.83;51.13;100755.94;5030278;28;20447;-71
2022/10/16 02:51:07;;;;;;;1.70;1.20;;;;;;;14.82;51.39;100756.97;5026624;28;20163;-71
2022/10/16 02:53:35;;;;;;;1.30;1.00;;;;;;;14.82;51.61;100749.56;5017655;28;20057;-71
2022/10/16 02:56:03;;;;;;;1.10;1.00;;;;;;;14.83;51.13;100764.22;5027618;28;20393;-71
2022/10/16 02:58:31;;;;;;;1.40;0.93;;;;;;;14.83;51.12;100766.97;5025381;28;20091;-71
2022/10/16 03:01:02;;;;;;;1.88;1.10;;;;;;;14.85;50.94;100765.75;5024214;28;20041;-71
2022/10/16 03:03:30;;;;;;;0.85;0.77;;;;;;;14.84;51.43;100768.69;5026439;28;20041;-71
2022/10/16 03:05:58;;;;;;;1.60;1.20;;;;;;;14.84;51.29;100775.06;5015705;28;20042;-70
2022/10/16 03:08:26;;;;;;;2.20;0.77;;;;;;;14.84;51.10;100774.22;5026388;28;20042;-71
2022/10/16 03:10:55;;;;;;;0.80;0.80;;;;;;;14.84;50.97;100774.22;5022978;28;20504;-71
2022/10/16 03:13:23;;;;;;;1.92;1.00;;;;;;;14.84;51.18;100764.06;5026066;28;20038;-71
2022/10/16 03:15:51;;;;;;;1.80;1.10;;;;;;;14.83;50.89;100770.59;5024910;28;20565;-71
2022/10/16 03:18:21;;;;;;;1.38;0.93;;;;;;;14.84;50.85;100769.56;5026999;28;20539;-71
2022/10/16 03:20:49;;;;;;;2.25;1.00;;;;;;;14.82;50.86;100760.59;5025471;28;20067;-71
2022/10/16 03:23:17;;;;;;;1.98;1.08;;;;;;;14.82;50.83;100754.22;5025363;28;20064;-71
2022/10/16 03:25:45;;;;;;;1.55;1.05;;;;;;;14.83;50.84;100747.69;5022893;28;20043;-71
2022/10/16 03:28:15;;;;;;;1.42;0.88;;;;;;;14.82;50.92;100760.59;5027730;28;20361;-71
2022/10/16 03:30:44;;;;;;;1.20;0.80;;;;;;;14.82;50.72;100768.84;5027514;28;20060;-71
2022/10/16 03:33:12;;;;;;;0.82;0.80;;;;;;;14.81;50.58;100769.88;5027661;28;20071;-71
2022/10/16 03:35:42;;;;;;;1.00;0.75;;;;;;;14.82;50.63;100768.84;5026829;28;20048;-71
2022/10/16 03:38:10;;;;;;;1.02;0.80;;;;;;;14.80;50.82;100776.41;5023954;28;20117;-71
2022/10/16 03:40:38;;;;;;;1.65;0.98;;;;;;;14.79;50.48;100765.56;4997759;28;20049;-71
2022/10/16 03:43:06;;;;;;;1.38;0.70;;;;;;;14.79;50.76;100776.56;5036516;28;20041;-71
2022/10/16 03:45:34;;;;;;;1.17;0.80;;;;;;;14.76;50.75;100773.13;5023165;28;20046;-71
2022/10/16 03:48:03;;;;;;;1.38;0.70;;;;;;;14.76;50.77;100769.53;5027239;28;20037;-71
2022/10/16 03:50:31;;;;;;;1.17;0.95;;;;;;;14.75;50.56;100768.66;5027813;28;20461;-71
2022/10/16 03:53:00;;;;;;;1.25;0.85;;;;;;;14.77;50.19;100768.47;5031298;28;20088;-71
2022/10/16 03:55:28;;;;;;;1.50;0.82;;;;;;;14.75;50.50;100779.69;5029683;28;20052;-71
2022/10/16 03:57:56;;;;;;;1.42;0.80;;;;;;;14.74;50.60;100782.59;5030953;28;20049;-71
2022/10/16 04:00:24;;;;;;;1.27;0.90;;;;;;;14.74;50.43;100785.34;5027189;28;20045;-71
2022/10/16 04:02:52;;;;;;;1.58;0.80;;;;;;;14.74;50.51;100788.09;5027328;28;20056;-71
2022/10/16 04:05:20;;;;;;;0.82;0.73;;;;;;;14.72;50.40;100792.91;5003090;28;20075;-71
2022/10/16 04:07:48;;;;;;;1.02;0.70;;;;;;;14.71;50.42;100792.03;5015278;28;20214;-71
2022/10/16 04:10:17;;;;;;;1.02;0.85;;;;;;;14.72;50.22;100787.38;5021122;28;20400;-71
2022/10/16 04:12:45;;;;;;;1.40;0.82;;;;;;;14.69;50.18;100782.19;5030726;28;20431;-71
2022/10/16 04:15:13;;;;;;;1.02;0.70;;;;;;;14.67;49.82;100793.41;5028229;28;20045;-71
2022/10/16 04:17:41;;;;;;;1.23;0.80;;;;;;;14.67;50.13;100806.31;5021439;28;20041;-71
2022/10/16 04:20:09;;;;;;;2.30;0.82;;;;;;;14.65;50.37;100792.69;5021515;28;20045;-71
2022/10/16 04:22:37;;;;;;;1.80;0.90;;;;;;;14.64;50.30;100804.72;5045744;28;20046;-71
2022/10/16 04:25:06;;;;;;;1.58;0.80;;;;;;;14.64;50.36;100815.75;5029457;28;20400;-71
2022/10/16 04:27:35;;;;;;;1.08;0.80;;;;;;;14.64;50.32;100823.16;5029565;28;20124;-71
2022/10/16 04:30:04;;;;;;;1.70;0.90;;;;;;;14.62;49.86;100828.81;5029645;28;20427;-71
2022/10/16 04:32:32;;;;;;;0.98;0.68;;;;;;;14.61;50.15;100834.47;5003172;28;20053;-71
2022/10/16 04:35:00;;;;;;;1.45;0.90;;;;;;;14.60;49.94;100824.50;5021685;28;20041;-71
2022/10/16 04:37:28;;;;;;;1.40;0.93;;;;;;;14.59;50.16;100831.91;5029576;28;20057;-71
2022/10/16 04:39:56;;;;;;;1.52;0.90;;;;;;;14.58;49.70;100832.06;5020112;28;20092;-71
2022/10/16 04:42:24;;;;;;;1.10;0.73;;;;;;;14.57;50.30;100820.19;5028421;28;20050;-71
2022/10/16 04:44:53;;;;;;;1.25;0.73;;;;;;;14.57;49.82;100814.66;5026089;28;20037;-71
2022/10/16 04:47:22;;;;;;;1.40;0.80;;;;;;;14.55;50.17;100811.22;5029236;28;20048;-71
2022/10/16 04:49:50;;;;;;;1.40;0.90;;;;;;;14.54;50.18;100811.38;5029256;28;20042;-71
2022/10/16 04:52:19;;;;;;;1.33;0.70;;;;;;;14.53;50.14;100826.16;5028656;28;20053;-71
2022/10/16 04:54:47;;;;;;;1.77;1.00;;;;;;;14.52;49.95;100832.72;5029338;28;20041;-71
2022/10/16 04:57:15;;;;;;;0.90;0.80;;;;;;;14.51;49.86;100845.63;5019102;28;20046;-71
2022/10/16 04:59:43;;;;;;;1.25;0.90;;;;;;;14.49;50.15;100844.91;5026938;28;20083;-71
2022/10/16 05:02:13;;;;;;;2.35;1.00;;;;;;;14.51;49.94;100858.53;5024470;28;20038;-71
2022/10/16 05:04:41;;;;;;;1.35;0.90;;;;;;;14.46;49.86;100842.44;5030226;28;20041;-71
2022/10/16 05:07:09;;;;;;;2.70;0.82;;;;;;;14.48;50.07;100850.56;5016744;28;20193;-71
2022/10/16 05:09:38;;;;;;;1.10;0.70;;;;;;;14.46;49.98;100849.81;5023612;28;20045;-71
2022/10/16 05:12:06;;;;;;;1.40;0.90;;;;;;;14.45;50.37;100856.34;5019593;28;20048;-71
2022/10/16 05:14:34;;;;;;;1.52;0.80;;;;;;;14.43;50.06;100851.03;5028571;28;20119;-71
2022/10/16 05:17:02;;;;;;;1.17;0.90;;;;;;;14.42;49.85;100852.06;5026458;28;20061;-71
2022/10/16 05:19:32;;;;;;;1.48;1.00;;;;;;;14.42;49.74;100854.81;5027934;28;20060;-71
2022/10/16 05:22:00;;;;;;;1.52;0.70;;;;;;;14.41;49.93;100866.84;5028980;28;20045;-71
2022/10/16 05:24:28;;;;;;;1.70;1.05;;;;;;;14.39;50.06;100869.75;5028422;28;20042;-71
2022/10/16 05:26:56;;;;;;;0.93;0.77;;;;;;;14.39;50.52;100877.13;5027686;28;20049;-71
2022/10/16 05:29:24;;;;;;;1.63;1.08;;;;;;;14.37;50.20;100871.78;5028256;28;20056;-71
2022/10/16 05:31:53;;;;;;;1.00;0.77;;;;;;;14.37;50.05;100869.03;5025691;28;20519;-71
2022/10/16 05:34:22;;;;;;;1.27;0.70;;;;;;;14.36;50.03;100864.53;5029197;28;20124;-70
2022/10/16 05:36:52;;;;;;;1.48;0.85;;;;;;;14.37;50.41;100869.03;4999943;28;20049;-70
2022/10/16 05:39:20;;;;;;;1.40;0.70;;;;;;;14.34;50.38;100872.13;5026031;28;20128;-70
2022/10/16 05:41:52;;;;;;;0.93;0.70;;;;;;;14.33;50.29;100886.91;5022237;28;20112;-72
2022/10/16 05:44:20;;;;;;;1.90;0.90;;;;;;;14.34;50.03;100874.00;5028430;28;20030;-71
2022/10/16 05:46:48;;;;;;;1.23;0.70;;;;;;;14.32;50.23;100887.06;5025729;28;20492;-71
2022/10/16 05:49:16;;;;;;;1.02;0.70;;;;;;;14.31;50.41;100888.94;5028794;28;20045;-71
2022/10/16 05:51:44;;;;;;;1.00;0.85;;;;;;;14.32;50.43;100889.81;5029559;28;20495;-71
2022/10/16 05:54:14;;;;;;;1.35;0.70;;;;;;;14.32;50.07;100898.94;5033325;28;20040;-70
2022/10/16 05:56:42;;;;;;;0.95;0.70;;;;;;;14.31;50.27;100902.72;5043072;28;20068;-70
2022/10/16 05:59:12;;;;;;;1.75;0.90;;;;;;;14.31;50.62;100902.72;5029397;28;20045;-70
2022/10/16 06:01:57;;;;;;;1.00;0.90;;;;;;;14.29;50.58;100903.88;5025278;28;20135;-71
2022/10/16 06:04:24;;;;;;;2.88;1.05;;;;;;;14.28;50.00;100916.78;5028767;28;20045;-71
2022/10/16 06:06:52;;;;;;;1.77;0.80;;;;;;;14.28;50.15;100919.53;5027045;28;20503;-71
2022/10/16 06:09:22;;;;;;;2.17;0.98;;;;;;;14.30;50.67;100917.50;5028714;28;20041;-71
2022/10/16 06:11:50;;;;;;;1.63;0.90;;;;;;;14.28;50.37;100924.16;5024581;28;20041;-71
2022/10/16 06:14:18;;;;;;;2.00;0.90;;;;;;;14.29;50.77;100931.41;5026644;28;20117;-71
2022/10/16 06:16:46;;;;;;;1.38;0.95;;;;;;;14.29;50.39;100925.91;5022937;28;20038;-71
2022/10/16 06:19:16;;;;;;;1.05;0.70;;;;;;;14.28;50.32;100930.53;5024099;28;20038;-71
2022/10/16 06:21:44;;;;;;;1.05;0.80;;;;;;;14.28;50.86;100927.78;5020368;28;20127;-71
2022/10/16 06:24:12;;;;;;;1.35;0.93;;;;;;;14.29;50.74;100928.66;5025365;28;20384;-71
2022/10/16 06:26:41;;;;;;;2.15;0.85;;;;;;;14.30;50.64;100928.50;5024719;28;20109;-71
2022/10/16 06:29:09;;;;;;;1.25;0.95;;;;;;;14.28;50.84;100936.06;5024464;28;20037;-71
2022/10/16 06:31:37;;;;;;;1.50;0.98;;;;;;;14.30;50.68;100933.16;5026770;28;20158;-71
2022/10/16 06:34:09;;;;;;;1.00;0.70;;;;;;;14.31;50.90;100937.63;5026333;28;20037;-71
2022/10/16 06:36:37;;;;;;;1.10;0.80;;;;;;;14.31;50.93;100930.25;5028472;28;20048;-71
2022/10/16 06:39:07;;;;;;;1.20;0.82;;;;;;;14.32;50.72;100940.22;5026207;28;20029;-71
2022/10/16 06:41:35;;;;;;;2.20;0.80;;;;;;;14.33;50.97;100941.97;5021375;28;20052;-71
2022/10/16 06:44:16;;;;;;;2.65;0.80;;;;;;;14.37;51.59;100956.28;5023913;28;20038;-71
2022/10/16 06:46:44;;;;;;;1.60;1.10;;;;;;;14.41;51.52;100960.47;5019377;28;20126;-71
2022/10/16 06:49:13;;;;;;;1.55;0.80;;;;;;;14.49;51.91;100970.72;5029430;28;20048;-71
2022/10/16 06:51:41;;;;;;;1.05;0.85;;;;;;;14.61;52.17;100972.19;5020020;28;20033;-71
2022/10/16 06:54:10;;;;;;;1.05;0.80;;;;;;;14.73;52.27;100970.94;5029830;28;20443;-71
2022/10/16 06:56:38;;;;;;;1.38;0.88;;;;;;;14.87;51.77;100972.25;5027987;28;20076;-71
2022/10/16 06:59:06;;;;;;;1.50;0.80;;;;;;;14.99;51.82;100982.00;5027548;28;20046;-71
2022/10/16 07:01:35;;;;;;;1.42;0.90;;;;;;;15.13;52.01;100985.06;5025101;28;20057;-71
2022/10/16 07:04:04;;;;;;;2.05;0.90;;;;;;;15.26;51.59;100997.56;5027363;28;20048;-71
2022/10/16 07:06:34;;;;;;;1.08;0.90;;;;;;;15.39;51.18;100998.00;5024375;28;20053;-71
2022/10/16 07:09:05;;;;;;;1.25;0.82;;;;;;;15.51;50.88;100999.44;5043710;28;20069;-71
2022/10/16 07:11:33;;;;;;;1.30;0.90;;;;;;;15.60;50.17;101005.88;5021746;28;20087;-71
2022/10/16 07:14:02;;;;;;;1.65;0.80;;;;;;;15.66;49.94;101010.78;5023114;28;20421;-71
2022/10/16 07:16:31;;;;;;;1.75;0.90;;;;;;;15.71;49.72;101011.13;5023721;28;20089;-72
2022/10/16 07:19:03;;;;;;;1.63;0.90;;;;;;;15.75;49.38;101012.56;5026002;28;20520;-71
2022/10/16 07:21:35;;;;;;;1.80;0.90;;;;;;;15.78;49.57;101023.25;5018474;28;20049;-71
2022/10/16 07:24:05;;;;;;;1.83;0.80;;;;;;;15.77;49.75;101022.38;5030109;28;20120;-71
2022/10/16 07:26:36;;;;;;;1.15;0.90;;;;;;;15.80;49.35;101033.09;5029538;28;20045;-71
2022/10/16 07:29:04;;;;;;;1.85;0.93;;;;;;;15.79;49.21;101039.63;5028951;28;20558;-71
2022/10/16 07:31:33;;;;;;;1.45;1.00;;;;;;;15.81;49.52;101033.97;5030565;28;20045;-71
2022/10/16 07:34:02;;;;;;;2.08;1.00;;;;;;;15.85;49.33;101040.88;5026569;28;20079;-71
2022/10/16 07:36:30;;;;;;;1.90;1.00;;;;;;;15.84;49.12;101045.53;5030582;28;20084;-71
2022/10/16 07:38:58;;;;;;;1.38;0.90;;;;;;;15.86;48.99;101050.88;5029308;28;20080;-71
2022/10/16 07:41:27;;;;;;;1.88;1.02;;;;;;;15.86;48.88;101053.63;5026618;28;20053;-72
2022/10/16 07:43:57;;;;;;;1.88;0.98;;;;;;;15.87;48.69;101052.63;5029539;28;20045;-72
2022/10/16 07:46:25;;;;;;;1.63;0.90;;;;;;;15.85;48.81;101060.19;5030394;28;20123;-72
2022/10/16 07:48:53;;;;;;;2.58;1.20;;;;;;;15.86;49.26;101064.69;5024587;28;20029;-71
2022/10/16 07:51:24;;;;;;;2.30;1.15;;;;;;;15.88;49.22;101071.78;5031222;28;20033;-72
2022/10/16 07:53:53;;;;;;;2.03;0.90;;;;;;;15.90;49.65;101068.84;5024023;28;20037;-72
2022/10/16 07:56:21;;;;;;;1.65;0.90;;;;;;;15.94;49.25;101069.38;5023874;28;20504;-71
2022/10/16 07:58:51;;;;;;;2.08;1.30;;;;;;;16.01;49.67;101073.22;5029628;28;20131;-71
2022/10/16 08:01:20;;;;;;;1.42;0.90;;;;;;;16.07;49.87;101078.97;5024674;28;20041;-71
2022/10/16 08:03:50;;;;;;;2.88;1.20;;;;;;;16.16;49.28;101089.03;5025952;28;20120;-71
2022/10/16 08:06:20;;;;;;;1.58;1.10;;;;;;;16.24;49.39;101093.75;5024891;28;20049;-71
2022/10/16 08:08:56;;;;;;;1.75;0.90;;;;;;;16.33;49.12;101091.88;5030971;28;20073;-71
2022/10/16 08:11:24;;;;;;;2.35;0.98;;;;;;;16.39;49.20;101097.59;5024062;28;20057;-71
2022/10/16 08:13:52;;;;;;;1.30;0.88;;;;;;;16.47;49.23;101094.00;5028254;28;20049;-71
2022/10/16 08:16:20;;;;;;;3.05;1.17;;;;;;;16.54;49.16;101098.69;5028879;28;20108;-71
2022/10/16 08:18:48;;;;;;;2.78;1.20;;;;;;;16.62;48.92;101106.13;5029749;28;20444;-71
2022/10/16 08:21:18;;;;;;;2.15;1.20;;;;;;;16.68;48.84;101113.75;5020531;28;20507;-71
2022/10/16 08:23:48;;;;;;;1.98;1.00;;;;;;;16.72;49.00;101111.53;5029023;28;20204;-71
2022/10/16 08:26:27;;;;;;;2.08;0.90;;;;;;;16.82;48.40;101117.78;5028171;28;20123;-71
2022/10/16 08:28:55;;;;;;;2.42;1.17;;;;;;;16.88;48.85;101117.97;5030342;28;20057;-72
2022/10/16 08:31:24;;;;;;;2.10;1.20;;;;;;;16.95;48.87;101110.72;5029322;28;20057;-71
2022/10/16 08:33:52;;;;;;;3.03;1.20;;;;;;;17.02;48.89;101116.44;5030119;28;20043;-72
2022/10/16 08:36:20;;;;;;;1.52;0.90;;;;;;;17.11;48.69;101120.97;5030290;28;20114;-71
2022/10/16 08:38:50;;;;;;;1.40;0.93;;;;;;;17.21;48.14;101129.09;5031697;28;20373;-71
2022/10/16 08:41:43;;;;;;;3.05;1.00;;;;;;;17.31;47.59;101124.28;5016033;28;20137;-72
2022/10/16 08:44:42;;;;;;;1.75;0.70;;;;;;;17.38;47.56;101133.63;5025557;28;20085;-72
2022/10/16 08:47:18;;;;;;;1.38;0.90;;;;;;;17.51;47.30;101133.09;5018606;28;20046;-72
2022/10/16 08:49:57;;;;;;;0.90;0.80;;;;;;;17.63;46.69;101137.25;5030685;28;20072;-72
2022/10/16 08:52:31;;;;;;;1.65;0.85;;;;;;;17.73;47.51;101147.06;5029519;28;20076;-72
2022/10/16 08:54:59;;;;;;;1.58;0.90;;;;;;;17.82;47.45;101139.66;5031326;28;20332;-71
2022/10/16 08:57:29;;;;;;;1.60;0.98;;;;;;;17.93;47.13;101144.84;5023886;28;20053;-72
2022/10/16 09:00:01;;;;;;;3.63;1.20;;;;;;;18.05;46.42;101153.66;5029220;28;20076;-72
2022/10/16 09:02:33;;;;;;;1.58;0.75;;;;;;;18.12;46.58;101144.47;5018519;28;20046;-72
2022/10/16 09:05:18;;;;;;;3.33;1.13;;;;;;;18.26;45.76;101148.41;5029899;28;20044;-72
2022/10/16 09:07:57;;;;;;;3.20;0.95;;;;;;;18.37;45.45;101148.03;5030198;28;20172;-72
2022/10/16 09:10:39;;;;;;;1.80;0.95;;;;;;;18.48;45.55;101155.97;5024022;28;21153;-72
2022/10/16 09:13:19;;;;;;;2.20;0.80;;;;;;;18.58;44.89;101166.00;5028460;28;20435;-72
2022/10/16 09:15:56;;;;;;;3.17;0.90;;;;;;;18.67;45.21;101157.47;5028638;28;20510;-72
2022/10/16 09:18:33;;;;;;;2.40;0.73;;;;;;;18.77;44.58;101163.66;5045435;28;20655;-72
2022/10/16 09:21:09;;;;;;;1.98;0.80;;;;;;;18.86;44.43;101167.25;5029504;28;20045;-72
2022/10/16 09:23:38;;;;;;;1.90;0.88;;;;;;;18.94;44.80;101163.59;5028359;28;20049;-72
2022/10/16 09:26:10;;;;;;;1.77;0.82;;;;;;;19.01;44.98;101167.34;5028236;28;20052;-72
2022/10/16 09:28:40;;;;;;;1.92;1.00;;;;;;;19.10;44.71;101174.59;5024293;28;20095;-72
2022/10/16 09:31:16;;;;;;;1.83;0.90;;;;;;;19.18;43.55;101177.31;5029003;28;20068;-72
2022/10/16 09:33:46;;;;;;;1.98;0.70;;;;;;;19.24;44.65;101177.47;5017394;28;20048;-72
2022/10/16 09:36:14;;;;;;;2.22;1.00;;;;;;;19.31;44.19;101174.81;5025072;28;20060;-72
2022/10/16 09:38:42;;;;;;;2.33;0.95;;;;;;;19.40;43.79;101181.16;5023890;28;20135;-72
2022/10/16 09:41:18;;;;;;;1.83;0.90;;;;;;;19.49;42.61;101174.50;5023956;28;20054;-72
2022/10/16 09:43:56;;;;;;;0.73;0.60;;;;;;;19.57;42.56;101183.63;5028168;28;20046;-72
2022/10/16 09:46:30;;;;;;;1.45;0.70;;;;;;;19.64;42.36;101176.28;5007429;28;20063;-72
2022/10/16 09:49:00;;;;;;;1.20;0.60;;;;;;;19.72;43.15;101178.13;5033999;28;20042;-72
2022/10/16 09:51:29;;;;;;;2.17;0.65;;;;;;;19.79;42.96;101178.28;5027657;28;21254;-70
2022/10/16 09:54:00;;;;;;;1.85;0.68;;;;;;;19.86;42.61;101182.88;5029510;28;20037;-71
2022/10/16 09:56:32;;;;;;;2.13;0.70;;;;;;;19.92;42.45;101182.16;5028450;28;20495;-70
2022/10/16 09:59:04;;;;;;;1.47;0.50;;;;;;;19.98;42.24;101178.63;5029993;28;20049;-70
2022/10/16 10:01:38;;;;;;;1.88;0.80;;;;;;;20.06;41.30;101174.91;5016024;28;20046;-71
2022/10/16 10:04:07;;;;;;;0.95;0.52;;;;;;;20.10;41.69;101176.25;5027602;28;20038;-71
2022/10/16 10:06:38;;;;;;;1.58;0.75;;;;;;;20.14;41.61;101183.16;5035127;28;20052;-71
2022/10/16 10:09:16;;;;;;;1.08;0.57;;;;;;;20.17;41.37;101185.56;5030287;28;20144;-71
2022/10/16 10:11:53;;;;;;;1.75;0.55;;;;;;;20.19;40.55;101179.81;5023116;28;20488;-71
2022/10/16 10:14:36;;;;;;;2.55;0.73;;;;;;;20.20;40.24;101179.59;5028276;28;20120;-71
2022/10/16 10:17:13;;;;;;;1.67;0.68;;;;;;;20.19;39.89;101180.69;5016136;28;20747;-71
2022/10/16 10:19:45;;;;;;;2.20;0.70;;;;;;;20.19;40.71;101189.03;5017290;28;20115;-71
2022/10/16 10:22:24;;;;;;;0.90;0.68;;;;;;;20.20;39.43;101182.38;4989017;28;20076;-72
2022/10/16 10:25:13;;;;;;;2.13;0.68;;;;;;;20.20;39.70;101195.44;5029614;28;20041;-72
2022/10/16 10:27:58;;;;;;;4.45;1.05;;;;;;;20.18;39.07;101195.63;5039118;28;20088;-72
2022/10/16 10:30:34;;;;;;;0.82;0.55;;;;;;;20.16;39.78;101181.06;4993095;28;20062;-72
2022/10/16 10:33:16;;;;;;;2.53;0.80;;;;;;;20.13;39.24;101178.66;5010320;28;20076;-72
2022/10/16 10:35:47;;;;;;;2.28;0.60;;;;;;;20.08;40.14;101175.59;5023270;28;20168;-72
2022/10/16 10:38:30;;;;;;;0.93;0.52;;;;;;;20.09;39.26;101179.22;5025923;28;20132;-71
2022/10/16 10:41:13;;;;;;;1.67;0.52;;;;;;;20.04;39.41;101177.00;5016338;28;20057;-72
2022/10/16 10:43:52;;;;;;;1.88;0.60;;;;;;;19.99;39.18;101185.03;5034776;28;20068;-71
2022/10/16 10:46:30;;;;;;;1.23;0.50;;;;;;;19.96;39.15;101190.97;5023540;28;20053;-71
2022/10/16 10:49:17;;;;;;;0.88;0.50;;;;;;;19.93;39.61;101194.13;5027566;28;20033;-71
2022/10/16 10:51:53;;;;;;;1.55;0.57;;;;;;;19.90;39.71;101188.91;5004575;28;20053;-71
2022/10/16 10:54:29;;;;;;;0.73;0.45;;;;;;;19.90;39.74;101194.47;5026021;28;20514;-72
2022/10/16 10:57:02;;;;;;;1.83;0.70;;;;;;;19.88;40.47;101194.66;5018513;28;20053;-71
2022/10/16 11:00:04;;;;;;;1.48;0.40;;;;;;;19.90;39.46;101192.56;5031780;28;20049;-71
2022/10/16 11:02:41;;;;;;;1.05;0.50;;;;;;;19.89;39.52;101198.28;5026501;28;20480;-71
2022/10/16 11:05:27;;;;;;;1.80;0.55;;;;;;;19.90;39.54;101202.81;5029658;28;20037;-72
2022/10/16 11:08:00;;;;;;;1.40;0.52;;;;;;;19.91;39.61;101205.44;5028561;28;20049;-72
2022/10/16 11:10:34;;;;;;;2.03;0.68;;;;;;;19.92;39.33;101203.53;5024690;28;20476;-73
2022/10/16 11:13:20;;;;;;;1.30;0.60;;;;;;;19.94;39.24;101209.75;5026661;28;20065;-70
2022/10/16 11:15:52;;;;;;;1.30;0.70;;;;;;;19.94;40.15;101215.31;4998862;28;20096;-70
2022/10/16 11:18:27;;;;;;;0.85;0.50;;;;;;;19.95;39.75;101211.50;5030902;28;20499;-70
2022/10/16 11:20:59;;;;;;;1.38;0.70;;;;;;;20.00;40.15;101209.88;5034425;28;20095;-72
2022/10/16 11:23:29;;;;;;;;;;;;;;;19.73;41.36;101215.09;5024925;28;20049;-70
2022/10/16 11:26:03;;;;;;;1.13;0.47;;;;;;;20.04;40.31;101215.06;5004991;28;19967;-72
2022/10/16 11:28:36;;;;;;;1.08;0.50;;;;;;;20.12;39.83;101210.25;5025391;28;20038;-71
2022/10/16 11:31:12;;;;;;;1.17;0.40;;;;;;;20.19;39.15;101214.03;5019531;28;20070;-70
2022/10/16 11:33:46;;;;;;;0.80;0.40;;;;;;;20.22;39.67;101210.84;5023873;28;20072;-70
2022/10/16 11:36:19;;;;;;;2.38;0.80;;;;;;;20.27;39.55;101202.84;5004134;28;20164;-71
2022/10/16 11:38:54;;;;;;;1.40;0.60;;;;;;;20.34;39.22;101206.56;5031882;28;20393;-71
2022/10/16 11:41:28;;;;;;;1.05;0.47;;;;;;;20.40;39.24;101207.72;5028577;28;20049;-70
2022/10/16 11:44:10;;;;;;;1.67;0.60;;;;;;;20.44;38.81;101217.44;5030862;28;20088;-69
2022/10/16 11:46:47;;;;;;;1.00;0.45;;;;;;;20.48;38.78;101223.44;5028845;28;20045;-71